createdAt,value
2023-08-17T00:00:52.766Z,21.88
2023-08-17T00:01:52.632Z,21.94
2023-08-17T00:02:52.974Z,21.85
2023-08-17T00:03:53.648Z,21.88
2023-08-17T00:04:53.641Z,21.89
2023-08-17T00:05:54.345Z,21.85
2023-08-17T00:06:55.382Z,21.91
2023-08-17T00:07:55.686Z,21.84
2023-08-17T00:08:56.202Z,21.84
2023-08-17T00:09:57.167Z,21.89
2023-08-17T00:10:57.970Z,21.78
2023-08-17T00:11:58.821Z,21.84
2023-08-17T00:12:59.085Z,21.92
2023-08-17T00:13:59.840Z,21.81
2023-08-17T00:14:59.761Z,21.84
2023-08-17T00:16:00.558Z,21.77
2023-08-17T00:17:01.106Z,21.78
2023-08-17T00:18:01.708Z,21.78
2023-08-17T00:19:02.389Z,21.81
2023-08-17T00:20:02.883Z,21.78
2023-08-17T00:21:02.981Z,21.8
2023-08-17T00:22:03.538Z,21.77
2023-08-17T00:23:04.239Z,21.78
2023-08-17T00:24:04.737Z,21.68
2023-08-17T00:25:05.465Z,21.74
2023-08-17T00:26:06.005Z,21.68
2023-08-17T00:27:06.894Z,21.75
2023-08-17T00:28:07.026Z,21.75
2023-08-17T00:29:07.199Z,21.72
2023-08-17T00:30:07.917Z,21.7
2023-08-17T00:31:08.870Z,21.68
2023-08-17T00:32:09.054Z,21.58
2023-08-17T00:33:09.345Z,21.66
2023-08-17T00:34:10.025Z,21.56
2023-08-17T00:35:11.009Z,21.66
2023-08-17T00:36:11.319Z,21.68
2023-08-17T00:37:12.169Z,21.66
2023-08-17T00:38:13.176Z,21.69
2023-08-17T00:39:13.765Z,21.6
2023-08-17T00:40:14.475Z,21.63
2023-08-17T00:41:15.193Z,21.69
2023-08-17T00:42:15.931Z,21.62
2023-08-17T00:43:16.850Z,21.7
2023-08-17T00:44:16.795Z,21.6
2023-08-17T00:45:17.514Z,21.69
2023-08-17T00:46:18.014Z,21.74
2023-08-17T00:47:17.759Z,21.68
2023-08-17T00:48:18.741Z,21.66
2023-08-17T00:49:19.439Z,21.65
2023-08-17T00:50:20.150Z,21.68
2023-08-17T00:51:21.037Z,21.66
2023-08-17T00:52:20.952Z,21.65
2023-08-17T00:53:21.259Z,21.69
2023-08-17T00:54:22.241Z,21.62
2023-08-17T00:55:23.248Z,21.69
2023-08-17T00:56:23.544Z,21.7
2023-08-17T00:57:24.283Z,21.7
2023-08-17T00:58:23.827Z,21.69
2023-08-17T00:59:24.886Z,21.63
2023-08-17T01:00:25.963Z,21.68
2023-08-17T01:01:25.752Z,21.63
2023-08-17T01:02:25.629Z,21.63
2023-08-17T01:03:26.621Z,21.66
2023-08-17T01:04:27.405Z,21.65
2023-08-17T01:05:28.050Z,21.62
2023-08-17T01:06:28.613Z,21.63
2023-08-17T01:07:30.345Z,21.6
2023-08-17T01:08:30.059Z,21.6
2023-08-17T01:09:31.009Z,21.7
2023-08-17T01:10:31.308Z,21.65
2023-08-17T01:11:31.690Z,21.62
2023-08-17T01:12:32.021Z,21.69
2023-08-17T01:13:32.567Z,21.66
2023-08-17T01:14:33.284Z,21.65
2023-08-17T01:15:33.340Z,21.65
2023-08-17T01:16:33.945Z,21.65
2023-08-17T01:17:34.693Z,21.66
2023-08-17T01:18:35.478Z,21.65
2023-08-17T01:19:35.427Z,21.6
2023-08-17T01:20:36.161Z,21.6
2023-08-17T01:21:36.678Z,21.62
2023-08-17T01:22:37.253Z,21.69
2023-08-17T01:23:37.772Z,21.63
2023-08-17T01:24:38.906Z,21.69
2023-08-17T01:25:38.615Z,21.68
2023-08-17T01:26:39.322Z,21.63
2023-08-17T01:27:39.857Z,21.65
2023-08-17T01:28:40.394Z,21.66
2023-08-17T01:29:41.331Z,21.66
2023-08-17T01:30:41.808Z,21.66
2023-08-17T01:31:42.220Z,21.69
2023-08-17T01:32:43.069Z,21.74
2023-08-17T01:33:42.886Z,21.65
2023-08-17T01:34:43.176Z,21.65
2023-08-17T01:35:43.934Z,21.62
2023-08-17T01:36:44.848Z,21.65
2023-08-17T01:37:45.428Z,21.66
2023-08-17T01:38:45.845Z,21.68
2023-08-17T01:39:46.819Z,21.63
2023-08-17T01:40:47.333Z,21.69
2023-08-17T01:41:47.643Z,21.66
2023-08-17T01:42:48.391Z,21.58
2023-08-17T01:43:49.484Z,21.6
2023-08-17T01:44:49.240Z,21.59
2023-08-17T01:45:49.834Z,21.56
2023-08-17T01:46:50.318Z,21.47
2023-08-17T01:47:51.445Z,21.58
2023-08-17T01:48:52.404Z,21.53
2023-08-17T01:49:53.340Z,21.53
2023-08-17T01:50:53.930Z,21.53
2023-08-17T01:51:54.727Z,21.48
2023-08-17T01:52:55.440Z,21.48
2023-08-17T01:53:56.183Z,21.44
2023-08-17T01:54:57.105Z,21.45
2023-08-17T01:55:59.716Z,21.4
2023-08-17T01:58:58.414Z,21.37
2023-08-17T01:59:59.538Z,21.33
2023-08-17T02:01:00.163Z,21.37
2023-08-17T02:02:00.670Z,21.32
2023-08-17T02:03:01.069Z,21.25
2023-08-17T02:04:01.694Z,21.29
2023-08-17T02:05:02.411Z,21.17
2023-08-17T02:06:03.169Z,21.2
2023-08-17T02:07:04.295Z,21.14
2023-08-17T02:08:04.543Z,21.17
2023-08-17T02:09:05.044Z,21.11
2023-08-17T02:10:06.190Z,21.14
2023-08-17T02:11:06.754Z,21.13
2023-08-17T02:12:07.478Z,21.15
2023-08-17T02:13:23.157Z,21.13
2023-08-17T02:15:09.643Z,21.08
2023-08-17T02:16:10.507Z,21.04
2023-08-17T02:17:11.049Z,21.11
2023-08-17T02:18:11.826Z,21.03
2023-08-17T02:19:12.593Z,21.05
2023-08-17T02:20:13.808Z,21.03
2023-08-17T02:21:13.671Z,21.05
2023-08-17T02:22:14.180Z,21.04
2023-08-17T02:23:14.711Z,21.01
2023-08-17T02:24:15.587Z,20.98
2023-08-17T02:25:15.697Z,20.89
2023-08-17T02:26:16.801Z,20.96
2023-08-17T02:27:16.949Z,21.05
2023-08-17T02:28:17.785Z,21.01
2023-08-17T02:29:18.286Z,20.95
2023-08-17T02:30:19.047Z,21.01
2023-08-17T02:31:19.566Z,21
2023-08-17T02:32:20.340Z,20.98
2023-08-17T02:33:21.378Z,21.05
2023-08-17T02:34:22.300Z,21
2023-08-17T02:35:22.604Z,21.04
2023-08-17T02:36:23.615Z,20.93
2023-08-17T02:37:25.435Z,20.93
2023-08-17T02:39:25.344Z,20.95
2023-08-17T02:40:25.987Z,21
2023-08-17T02:41:26.677Z,20.92
2023-08-17T02:42:27.389Z,20.98
2023-08-17T02:43:27.930Z,21
2023-08-17T02:44:28.872Z,20.89
2023-08-17T02:45:29.431Z,20.93
2023-08-17T02:46:29.695Z,20.82
2023-08-17T02:47:30.413Z,20.89
2023-08-17T02:48:33.454Z,20.86
2023-08-17T02:49:30.974Z,20.92
2023-08-17T02:50:31.463Z,20.88
2023-08-17T02:51:32.397Z,20.83
2023-08-17T02:52:33.085Z,20.82
2023-08-17T02:53:34.044Z,20.82
2023-08-17T02:54:34.340Z,20.82
2023-08-17T02:55:35.271Z,20.8
2023-08-17T02:56:35.782Z,20.74
2023-08-17T02:57:36.301Z,20.82
2023-08-17T02:58:36.983Z,20.82
2023-08-17T02:59:37.493Z,20.88
2023-08-17T03:00:38.006Z,20.86
2023-08-17T03:01:39.187Z,20.86
2023-08-17T03:02:39.910Z,20.78
2023-08-17T03:03:40.089Z,20.77
2023-08-17T03:04:41.040Z,20.82
2023-08-17T03:05:41.541Z,20.85
2023-08-17T03:06:42.309Z,20.8
2023-08-17T03:07:43.403Z,20.8
2023-08-17T03:08:44.270Z,20.82
2023-08-17T03:09:44.801Z,20.77
2023-08-17T03:10:45.294Z,20.78
2023-08-17T03:11:45.841Z,20.74
2023-08-17T03:12:46.018Z,20.83
2023-08-17T03:13:47.187Z,20.8
2023-08-17T03:14:48.087Z,20.78
2023-08-17T03:15:48.868Z,20.75
2023-08-17T03:16:49.646Z,20.78
2023-08-17T03:17:51.078Z,20.8
2023-08-17T03:18:51.643Z,20.74
2023-08-17T03:20:51.895Z,20.75
2023-08-17T03:21:52.813Z,20.75
2023-08-17T03:22:53.128Z,20.75
2023-08-17T03:23:53.430Z,20.73
2023-08-17T03:24:53.942Z,20.68
2023-08-17T03:25:54.715Z,20.74
2023-08-17T03:26:55.632Z,20.64
2023-08-17T03:27:56.140Z,20.73
2023-08-17T03:28:56.612Z,20.74
2023-08-17T03:29:57.516Z,20.74
2023-08-17T03:30:58.269Z,20.74
2023-08-17T03:32:01.572Z,20.68
2023-08-17T03:33:59.730Z,20.77
2023-08-17T03:35:00.093Z,20.74
2023-08-17T03:36:00.820Z,20.71
2023-08-17T03:37:01.759Z,20.71
2023-08-17T03:38:02.686Z,20.64
2023-08-17T03:40:02.775Z,20.71
2023-08-17T03:41:03.506Z,20.71
2023-08-17T03:42:03.840Z,20.7
2023-08-17T03:43:04.546Z,20.73
2023-08-17T03:44:05.273Z,20.68
2023-08-17T03:45:05.993Z,20.74
2023-08-17T03:46:06.120Z,20.71
2023-08-17T03:47:06.053Z,20.71
2023-08-17T03:48:06.908Z,20.67
2023-08-17T03:49:07.626Z,20.64
2023-08-17T03:50:08.342Z,20.66
2023-08-17T03:51:08.656Z,20.73
2023-08-17T03:52:09.198Z,20.64
2023-08-17T03:53:09.711Z,20.73
2023-08-17T03:54:10.258Z,20.73
2023-08-17T03:55:10.790Z,20.71
2023-08-17T03:56:11.752Z,20.71
2023-08-17T03:57:12.458Z,20.59
2023-08-17T03:58:12.769Z,20.63
2023-08-17T03:59:13.856Z,20.66
2023-08-17T04:00:14.597Z,20.7
2023-08-17T04:01:15.575Z,20.71
2023-08-17T04:02:15.694Z,20.6
2023-08-17T04:03:16.026Z,20.64
2023-08-17T04:04:16.884Z,20.6
2023-08-17T04:05:17.207Z,20.6
2023-08-17T04:06:17.939Z,20.6
2023-08-17T04:07:18.659Z,20.59
2023-08-17T04:08:19.537Z,20.52
2023-08-17T04:09:19.944Z,20.55
2023-08-17T04:10:20.629Z,20.59
2023-08-17T04:11:21.351Z,20.55
2023-08-17T04:12:22.078Z,20.63
2023-08-17T04:13:22.608Z,20.6
2023-08-17T04:14:25.663Z,20.63
2023-08-17T04:16:24.439Z,20.58
2023-08-17T04:17:25.618Z,20.52
2023-08-17T04:18:25.002Z,20.56
2023-08-17T04:19:25.295Z,20.58
2023-08-17T04:20:25.874Z,20.55
2023-08-17T04:21:26.617Z,20.63
2023-08-17T04:22:26.387Z,20.53
2023-08-17T04:23:27.150Z,20.58
2023-08-17T04:24:27.712Z,20.55
2023-08-17T04:25:28.876Z,20.5
2023-08-17T04:26:29.232Z,20.5
2023-08-17T04:27:30.552Z,20.58
2023-08-17T04:28:30.451Z,20.49
2023-08-17T04:29:30.905Z,20.56
2023-08-17T04:30:31.412Z,20.56
2023-08-17T04:31:32.471Z,20.42
2023-08-17T04:32:33.561Z,20.49
2023-08-17T04:33:34.457Z,20.5
2023-08-17T04:34:35.221Z,20.5
2023-08-17T04:35:35.519Z,20.39
2023-08-17T04:36:36.448Z,20.34
2023-08-17T04:37:37.395Z,20.39
2023-08-17T04:38:38.404Z,20.4
2023-08-17T04:39:38.925Z,20.46
2023-08-17T04:40:39.431Z,20.39
2023-08-17T04:41:40.137Z,20.42
2023-08-17T04:42:40.656Z,20.42
2023-08-17T04:43:41.381Z,20.39
2023-08-17T04:44:42.150Z,20.36
2023-08-17T04:45:42.490Z,20.34
2023-08-17T04:46:43.394Z,20.3
2023-08-17T04:47:43.868Z,20.26
2023-08-17T04:48:44.820Z,20.26
2023-08-17T04:49:45.686Z,20.22
2023-08-17T04:50:46.202Z,20.24
2023-08-17T04:51:46.515Z,20.34
2023-08-17T04:52:47.100Z,20.27
2023-08-17T04:53:47.648Z,20.4
2023-08-17T04:54:48.171Z,20.26
2023-08-17T04:55:49.087Z,20.29
2023-08-17T04:56:49.787Z,20.26
2023-08-17T04:57:49.924Z,20.26
2023-08-17T04:58:50.672Z,20.3
2023-08-17T04:59:51.119Z,20.26
2023-08-17T05:00:51.933Z,20.39
2023-08-17T05:01:52.816Z,20.32
2023-08-17T05:02:53.911Z,20.36
2023-08-17T05:03:53.864Z,20.36
2023-08-17T05:04:53.684Z,20.26
2023-08-17T05:05:54.710Z,20.42
2023-08-17T05:06:55.463Z,20.36
2023-08-17T05:07:56.178Z,20.37
2023-08-17T05:08:56.876Z,20.39
2023-08-17T05:09:57.679Z,20.3
2023-08-17T05:10:58.682Z,20.4
2023-08-17T05:11:59.464Z,20.39
2023-08-17T05:13:00.650Z,20.39
2023-08-17T05:14:00.564Z,20.33
2023-08-17T05:15:01.551Z,20.34
2023-08-17T05:16:01.818Z,20.4
2023-08-17T05:17:02.882Z,20.42
2023-08-17T05:18:03.757Z,20.48
2023-08-17T05:19:03.903Z,20.53
2023-08-17T05:20:04.929Z,20.56
2023-08-17T05:21:05.265Z,20.5
2023-08-17T05:22:06.480Z,20.55
2023-08-17T05:23:07.026Z,20.59
2023-08-17T05:24:07.934Z,20.64
2023-08-17T05:25:08.455Z,20.63
2023-08-17T05:26:09.365Z,20.63
2023-08-17T05:27:10.154Z,20.66
2023-08-17T05:28:10.669Z,20.68
2023-08-17T05:29:11.374Z,20.59
2023-08-17T05:30:12.229Z,20.66
2023-08-17T05:31:13.001Z,20.64
2023-08-17T05:32:13.148Z,20.66
2023-08-17T05:33:14.155Z,20.71
2023-08-17T05:34:14.319Z,20.74
2023-08-17T05:35:15.319Z,20.8
2023-08-17T05:36:15.366Z,20.83
2023-08-17T05:37:16.092Z,20.82
2023-08-17T05:38:16.505Z,20.8
2023-08-17T05:39:16.862Z,20.78
2023-08-17T05:40:18.147Z,20.95
2023-08-17T05:41:18.693Z,20.88
2023-08-17T05:42:19.461Z,20.93
2023-08-17T05:43:20.369Z,20.96
2023-08-17T05:44:20.322Z,20.89
2023-08-17T05:45:21.290Z,21.01
2023-08-17T05:46:22.048Z,21.07
2023-08-17T05:47:22.947Z,21.04
2023-08-17T05:48:23.263Z,21.07
2023-08-17T05:49:24.040Z,21.04
2023-08-17T05:50:24.492Z,21.14
2023-08-17T05:51:24.987Z,21.15
2023-08-17T05:52:25.726Z,21.14
2023-08-17T05:53:26.480Z,21.15
2023-08-17T05:54:26.972Z,21.15
2023-08-17T05:55:27.902Z,21.2
2023-08-17T05:56:28.211Z,21.26
2023-08-17T05:57:29.439Z,21.28
2023-08-17T05:58:29.561Z,21.32
2023-08-17T05:59:30.108Z,21.25
2023-08-17T06:00:31.330Z,21.38
2023-08-17T06:01:31.740Z,21.35
2023-08-17T06:02:32.792Z,21.5
2023-08-17T06:03:33.185Z,21.51
2023-08-17T06:04:33.369Z,21.58
2023-08-17T06:05:33.370Z,21.6
2023-08-17T06:06:34.282Z,21.51
2023-08-17T06:07:35.039Z,21.68
2023-08-17T06:08:35.993Z,21.68
2023-08-17T06:09:36.754Z,21.63
2023-08-17T06:10:37.191Z,21.66
2023-08-17T06:11:38.093Z,21.62
2023-08-17T06:12:38.796Z,21.69
2023-08-17T06:13:39.312Z,21.72
2023-08-17T06:14:39.857Z,21.69
2023-08-17T06:15:41.010Z,21.75
2023-08-17T06:16:41.828Z,21.81
2023-08-17T06:17:43.390Z,21.84
2023-08-17T06:18:43.566Z,21.84
2023-08-17T06:19:44.090Z,21.83
2023-08-17T06:20:45.206Z,21.84
2023-08-17T06:21:45.716Z,21.91
2023-08-17T06:22:46.412Z,21.92
2023-08-17T06:23:46.693Z,21.91
2023-08-17T06:24:47.622Z,21.88
2023-08-17T06:25:48.256Z,21.91
2023-08-17T06:26:49.112Z,22.06
2023-08-17T06:27:49.421Z,22.03
2023-08-17T06:28:50.124Z,22.08
2023-08-17T06:29:50.911Z,22.03
2023-08-17T06:30:51.264Z,22.07
2023-08-17T06:31:51.921Z,22.14
2023-08-17T06:32:52.607Z,22.12
2023-08-17T06:33:53.304Z,22.16
2023-08-17T06:34:54.279Z,22.15
2023-08-17T06:35:55.228Z,22.15
2023-08-17T06:36:55.959Z,22.28
2023-08-17T06:37:56.477Z,22.21
2023-08-17T06:38:57.282Z,22.3
2023-08-17T06:39:57.991Z,22.23
2023-08-17T06:40:58.832Z,22.34
2023-08-17T06:41:59.383Z,22.38
2023-08-17T06:43:00.100Z,22.34
2023-08-17T06:44:00.806Z,22.4
2023-08-17T06:45:01.751Z,22.26
2023-08-17T06:46:02.527Z,22.31
2023-08-17T06:47:02.206Z,22.43
2023-08-17T06:48:03.507Z,22.23
2023-08-17T06:49:03.346Z,22.34
2023-08-17T06:50:04.355Z,22.28
2023-08-17T06:51:04.797Z,22.41
2023-08-17T06:52:05.790Z,22.38
2023-08-17T06:53:06.361Z,22.33
2023-08-17T06:54:07.318Z,22.47
2023-08-17T06:55:07.090Z,22.59
2023-08-17T06:56:08.967Z,22.74
2023-08-17T06:58:09.043Z,23.06
2023-08-17T06:59:09.565Z,23.26
2023-08-17T07:00:09.689Z,23.42
2023-08-17T07:01:10.675Z,23.52
2023-08-17T07:02:11.542Z,23.54
2023-08-17T07:03:11.422Z,23.74
2023-08-17T07:04:12.030Z,23.92
2023-08-17T07:05:12.638Z,24.14
2023-08-17T07:06:13.637Z,24.46
2023-08-17T07:07:14.550Z,24.75
2023-08-17T07:08:14.795Z,25.04
2023-08-17T07:09:15.534Z,25.31
2023-08-17T07:10:16.189Z,25.68
2023-08-17T07:11:17.205Z,25.83
2023-08-17T07:12:16.778Z,26.13
2023-08-17T07:13:17.492Z,26.34
2023-08-17T07:14:21.019Z,26.63
2023-08-17T07:15:18.662Z,26.81
2023-08-17T07:16:19.147Z,26.83
2023-08-17T07:17:19.932Z,27.05
2023-08-17T07:18:20.843Z,27.1
2023-08-17T07:19:45.558Z,27.3
2023-08-17T07:20:23.738Z,27.5
2023-08-17T07:21:24.046Z,27.29
2023-08-17T07:22:24.838Z,27.15
2023-08-17T07:23:25.898Z,27.01
2023-08-17T07:24:26.638Z,26.91
2023-08-17T07:25:27.182Z,26.88
2023-08-17T07:26:28.121Z,26.74
2023-08-17T07:27:29.756Z,26.7
2023-08-17T07:28:29.462Z,26.6
2023-08-17T07:29:30.183Z,26.63
2023-08-17T07:30:30.707Z,26.67
2023-08-17T07:31:31.282Z,26.67
2023-08-17T07:32:31.572Z,26.66
2023-08-17T07:33:32.687Z,26.67
2023-08-17T07:34:33.455Z,26.7
2023-08-17T07:35:34.374Z,26.73
2023-08-17T07:36:34.356Z,26.73
2023-08-17T07:37:35.867Z,26.76
2023-08-17T07:38:35.795Z,26.83
2023-08-17T07:39:36.591Z,26.83
2023-08-17T07:40:37.315Z,26.82
2023-08-17T07:41:37.857Z,26.68
2023-08-17T07:42:39.446Z,26.79
2023-08-17T07:43:39.332Z,26.73
2023-08-17T07:44:39.858Z,26.7
2023-08-17T07:45:41.182Z,26.64
2023-08-17T07:46:41.324Z,26.46
2023-08-17T07:47:42.151Z,26.23
2023-08-17T07:48:43.401Z,26.13
2023-08-17T07:49:43.533Z,26.08
2023-08-17T07:50:44.655Z,26.04
2023-08-17T07:51:45.690Z,26.07
2023-08-17T07:52:46.360Z,26.1
2023-08-17T07:53:47.526Z,26.1
2023-08-17T07:54:48.506Z,26.13
2023-08-17T07:55:51.473Z,26.08
2023-08-17T07:56:49.433Z,26.13
2023-08-17T07:57:50.000Z,26.15
2023-08-17T07:58:50.576Z,26.08
2023-08-17T07:59:51.505Z,26.11
2023-08-17T08:00:52.648Z,26.1
2023-08-17T08:01:53.592Z,26.16
2023-08-17T08:02:54.278Z,26.16
2023-08-17T08:03:54.545Z,26.1
2023-08-17T08:04:55.373Z,26.04
2023-08-17T08:05:55.493Z,26.04
2023-08-17T08:06:56.452Z,25.88
2023-08-17T08:07:57.364Z,25.85
2023-08-17T08:08:58.176Z,25.89
2023-08-17T08:09:58.988Z,25.81
2023-08-17T08:11:00.164Z,25.85
2023-08-17T08:12:00.623Z,25.88
2023-08-17T08:13:01.112Z,25.92
2023-08-17T08:14:01.894Z,25.89
2023-08-17T08:15:02.062Z,25.91
2023-08-17T08:16:03.046Z,25.92
2023-08-17T08:17:03.185Z,25.95
2023-08-17T08:18:03.441Z,25.95
2023-08-17T08:19:03.374Z,25.99
2023-08-17T08:20:04.313Z,26.03
2023-08-17T08:21:05.487Z,26.1
2023-08-17T08:22:06.010Z,26.07
2023-08-17T08:23:06.339Z,26.19
2023-08-17T08:24:30.969Z,26.39
2023-08-17T08:25:07.671Z,26.45
2023-08-17T08:26:08.553Z,26.55
2023-08-17T08:27:09.623Z,26.64
2023-08-17T08:28:10.343Z,26.79
2023-08-17T08:29:11.091Z,26.74
2023-08-17T08:30:12.055Z,26.81
2023-08-17T08:31:12.951Z,26.91
2023-08-17T08:32:13.000Z,27.04
2023-08-17T08:33:14.240Z,27.13
2023-08-17T08:34:14.466Z,27.37
2023-08-17T08:35:15.239Z,27.68
2023-08-17T08:36:16.208Z,27.85
2023-08-17T08:37:16.167Z,28.01
2023-08-17T08:38:17.263Z,28.2
2023-08-17T08:39:17.890Z,28.23
2023-08-17T08:40:19.055Z,28.15
2023-08-17T08:41:19.861Z,28.06
2023-08-17T08:42:20.014Z,28.06
2023-08-17T08:43:20.972Z,28.08
2023-08-17T08:44:21.488Z,28.27
2023-08-17T08:45:22.227Z,28.4
2023-08-17T08:46:23.380Z,28.52
2023-08-17T08:47:24.809Z,28.72
2023-08-17T08:48:24.849Z,29.06
2023-08-17T08:49:25.666Z,29.32
2023-08-17T08:50:26.293Z,29.59
2023-08-17T08:51:27.314Z,29.83
2023-08-17T08:52:28.218Z,30.11
2023-08-17T08:53:29.207Z,30.4
2023-08-17T08:54:29.117Z,30.69
2023-08-17T08:55:29.458Z,30.86
2023-08-17T08:56:30.475Z,31.17
2023-08-17T08:57:31.301Z,31.47
2023-08-17T08:58:31.170Z,31.57
2023-08-17T08:59:32.284Z,31.69
2023-08-17T09:00:32.810Z,31.72
2023-08-17T09:01:33.731Z,31.73
2023-08-17T09:02:33.899Z,31.77
2023-08-17T09:03:34.680Z,31.86
2023-08-17T09:04:35.450Z,32.08
2023-08-17T09:05:35.912Z,32.22
2023-08-17T09:06:36.694Z,32.24
2023-08-17T09:07:37.768Z,32.17
2023-08-17T09:08:38.605Z,31.9
2023-08-17T09:09:39.137Z,31.59
2023-08-17T09:10:44.594Z,31.6
2023-08-17T09:11:45.624Z,31.52
2023-08-17T09:13:54.100Z,31.74
2023-08-17T09:14:49.632Z,31.78
2023-08-17T09:15:50.044Z,31.87
2023-08-17T09:16:50.573Z,31.72
2023-08-17T09:17:51.697Z,31.77
2023-08-17T09:18:52.065Z,31.74
2023-08-17T09:19:52.012Z,31.82
2023-08-17T09:20:53.332Z,31.98
2023-08-17T09:21:56.614Z,32.17
2023-08-17T09:24:00.614Z,32.76
2023-08-17T09:24:54.316Z,33.05
2023-08-17T09:25:55.102Z,33.26
2023-08-17T09:26:55.841Z,33.2
2023-08-17T09:27:56.128Z,33.09
2023-08-17T09:28:57.272Z,33.08
2023-08-17T09:29:58.094Z,33.15
2023-08-17T09:30:59.496Z,33.26
2023-08-17T09:32:00.109Z,33.39
2023-08-17T09:33:00.290Z,33.48
2023-08-17T09:34:00.863Z,33.51
2023-08-17T09:35:01.489Z,33.67
2023-08-17T09:36:04.880Z,33.73
2023-08-17T09:38:02.128Z,34.18
2023-08-17T09:39:02.770Z,34.26
2023-08-17T09:40:03.340Z,34.65
2023-08-17T09:41:04.264Z,34.81
2023-08-17T09:42:05.234Z,35.03
2023-08-17T09:43:05.948Z,34.89
2023-08-17T09:44:06.790Z,35.03
2023-08-17T09:45:06.958Z,35.07
2023-08-17T09:46:07.790Z,35.27
2023-08-17T09:47:08.346Z,35.45
2023-08-17T09:48:09.817Z,35.6
2023-08-17T09:49:09.521Z,35.75
2023-08-17T09:50:10.283Z,35.96
2023-08-17T09:51:11.366Z,35.98
2023-08-17T09:52:12.412Z,36.17
2023-08-17T09:53:13.079Z,36.17
2023-08-17T09:54:13.810Z,36.25
2023-08-17T09:55:14.587Z,36.24
2023-08-17T09:56:18.500Z,36.22
2023-08-17T09:57:16.576Z,36.24
2023-08-17T09:58:17.093Z,36.26
2023-08-17T09:59:17.856Z,36.33
2023-08-17T10:00:18.180Z,36.33
2023-08-17T10:01:19.467Z,36.39
2023-08-17T10:02:19.244Z,36.36
2023-08-17T10:03:19.624Z,36.41
2023-08-17T10:04:20.568Z,36.41
2023-08-17T10:05:24.417Z,36.44
2023-08-17T10:06:27.889Z,36.48
2023-08-17T10:07:21.885Z,36.48
2023-08-17T10:08:22.520Z,36.38
2023-08-17T10:09:23.281Z,36.38
2023-08-17T10:10:24.012Z,36.39
2023-08-17T10:11:24.800Z,36.47
2023-08-17T10:12:26.479Z,36.55
2023-08-17T10:13:26.499Z,36.57
2023-08-17T10:14:27.195Z,36.51
2023-08-17T10:15:28.342Z,36.39
2023-08-17T10:16:35.408Z,36.41
2023-08-17T10:18:30.751Z,36.32
2023-08-17T10:19:31.273Z,36.26
2023-08-17T10:20:31.822Z,36.09
2023-08-17T10:21:32.741Z,35.98
2023-08-17T10:22:33.175Z,35.96
2023-08-17T10:23:32.962Z,35.88
2023-08-17T10:24:33.048Z,35.86
2023-08-17T10:25:34.225Z,35.84
2023-08-17T10:26:34.785Z,35.75
2023-08-17T10:27:35.054Z,35.66
2023-08-17T10:28:35.795Z,35.66
2023-08-17T10:29:36.529Z,35.63
2023-08-17T10:30:37.250Z,35.54
2023-08-17T10:31:37.955Z,35.5
2023-08-17T10:32:38.315Z,35.35
2023-08-17T10:33:39.077Z,35.39
2023-08-17T10:34:40.268Z,35.42
2023-08-17T10:35:41.254Z,35.47
2023-08-17T10:36:41.380Z,35.41
2023-08-17T10:37:42.352Z,35.34
2023-08-17T10:38:42.303Z,35.12
2023-08-17T10:39:42.837Z,35
2023-08-17T10:40:44.106Z,34.76
2023-08-17T10:41:44.264Z,34.63
2023-08-17T10:42:45.015Z,34.35
2023-08-17T10:44:45.858Z,34.21
2023-08-17T10:45:46.950Z,34.14
2023-08-17T10:46:47.627Z,34.21
2023-08-17T10:47:48.449Z,34.18
2023-08-17T10:48:49.386Z,34.25
2023-08-17T10:49:50.337Z,34.29
2023-08-17T10:50:51.102Z,34.43
2023-08-17T10:51:52.060Z,34.29
2023-08-17T10:52:54.849Z,34.35
2023-08-17T10:54:53.756Z,34.55
2023-08-17T10:55:58.885Z,34.53
2023-08-17T10:57:54.965Z,34.62
2023-08-17T10:58:55.950Z,34.69
2023-08-17T10:59:56.261Z,34.71
2023-08-17T11:00:57.424Z,34.82
2023-08-17T11:01:58.834Z,34.62
2023-08-17T11:02:58.744Z,34.58
2023-08-17T11:03:59.448Z,34.43
2023-08-17T11:04:59.586Z,34.43
2023-08-17T11:06:00.724Z,34.28
2023-08-17T11:07:01.820Z,34.09
2023-08-17T11:08:01.902Z,33.81
2023-08-17T11:09:03.461Z,33.67
2023-08-17T11:10:03.853Z,33.55
2023-08-17T11:11:03.528Z,33.58
2023-08-17T11:12:04.297Z,33.63
2023-08-17T11:13:05.328Z,33.5
2023-08-17T11:14:05.756Z,33.4
2023-08-17T11:15:06.502Z,33.26
2023-08-17T11:16:10.851Z,33.09
2023-08-17T11:17:12.234Z,33.09
2023-08-17T11:19:14.117Z,32.82
2023-08-17T11:20:15.754Z,32.83
2023-08-17T11:21:10.765Z,32.78
2023-08-17T11:22:11.260Z,32.71
2023-08-17T11:23:11.558Z,32.66
2023-08-17T11:24:11.790Z,32.72
2023-08-17T11:25:12.529Z,32.73
2023-08-17T11:26:13.609Z,32.66
2023-08-17T11:27:13.198Z,32.71
2023-08-17T11:28:13.985Z,32.79
2023-08-17T11:29:14.909Z,32.88
2023-08-17T11:30:16.113Z,33.05
2023-08-17T11:31:17.872Z,33.09
2023-08-17T11:32:17.758Z,33.26
2023-08-17T11:33:18.320Z,33.22
2023-08-17T11:34:19.204Z,33.38
2023-08-17T11:35:19.153Z,33.38
2023-08-17T11:36:19.986Z,33.36
2023-08-17T11:37:24.083Z,33.22
2023-08-17T11:38:20.497Z,33.17
2023-08-17T11:39:21.288Z,33.1
2023-08-17T11:40:21.817Z,33.05
2023-08-17T11:41:24.708Z,33.05
2023-08-17T11:42:26.904Z,33.03
2023-08-17T11:43:27.408Z,32.93
2023-08-17T11:45:28.386Z,32.98
2023-08-17T11:46:29.971Z,32.98
2023-08-17T11:47:25.598Z,32.97
2023-08-17T11:48:26.608Z,32.95
2023-08-17T11:49:27.464Z,32.95
2023-08-17T11:50:28.150Z,32.98
2023-08-17T11:51:28.723Z,32.98
2023-08-17T11:52:30.032Z,32.95
2023-08-17T11:55:30.752Z,33.09
2023-08-17T11:56:31.485Z,33.13
2023-08-17T11:57:31.425Z,33.32
2023-08-17T11:58:32.370Z,33.45
2023-08-17T11:59:32.715Z,33.57
2023-08-17T12:00:33.853Z,33.77
2023-08-17T12:01:34.187Z,33.75
2023-08-17T12:02:34.619Z,33.92
2023-08-17T12:03:34.736Z,34.06
2023-08-17T12:04:35.206Z,34.1
2023-08-17T12:05:36.141Z,34.21
2023-08-17T12:06:36.954Z,34.25
2023-08-17T12:07:38.105Z,34.31
2023-08-17T12:08:38.031Z,34.29
2023-08-17T12:09:38.253Z,34.26
2023-08-17T12:10:39.217Z,34.24
2023-08-17T12:11:39.411Z,34.21
2023-08-17T12:12:39.776Z,33.91
2023-08-17T12:13:40.634Z,33.88
2023-08-17T12:14:41.245Z,33.81
2023-08-17T12:15:41.754Z,33.76
2023-08-17T12:16:42.621Z,33.61
2023-08-17T12:17:43.302Z,33.6
2023-08-17T12:18:44.356Z,33.44
2023-08-17T12:19:45.355Z,33.38
2023-08-17T12:20:47.243Z,33.45
2023-08-17T12:21:47.196Z,33.42
2023-08-17T12:22:47.729Z,33.39
2023-08-17T12:23:48.574Z,33.48
2023-08-17T12:24:48.966Z,33.65
2023-08-17T12:25:49.419Z,33.75
2023-08-17T12:26:53.822Z,33.77
2023-08-17T12:27:51.231Z,33.94
2023-08-17T12:28:52.454Z,33.92
2023-08-17T12:29:53.202Z,34.03
2023-08-17T12:30:54.194Z,34.14
2023-08-17T12:31:54.330Z,34.11
2023-08-17T12:32:58.649Z,34.28
2023-08-17T12:33:55.688Z,34.31
2023-08-17T12:34:56.659Z,34.46
2023-08-17T12:35:58.264Z,34.63
2023-08-17T12:36:58.338Z,34.85
2023-08-17T12:37:58.866Z,34.89
2023-08-17T12:39:00.585Z,34.94
2023-08-17T12:40:00.968Z,35.01
2023-08-17T12:41:07.636Z,35.01
2023-08-17T12:42:02.697Z,34.86
2023-08-17T12:43:03.027Z,34.89
2023-08-17T12:44:04.280Z,34.96
2023-08-17T12:45:06.517Z,34.97
2023-08-17T12:46:05.754Z,35.05
2023-08-17T12:47:05.846Z,35.18
2023-08-17T12:48:06.386Z,35.3
2023-08-17T12:50:08.530Z,35.42
2023-08-17T12:51:10.878Z,35.5
2023-08-17T12:53:09.049Z,35.53
2023-08-17T12:54:10.009Z,35.56
2023-08-17T12:55:10.489Z,35.56
2023-08-17T12:56:11.335Z,35.57
2023-08-17T12:57:16.672Z,35.41
2023-08-17T12:59:13.585Z,35.15
2023-08-17T13:00:13.523Z,35
2023-08-17T13:01:14.808Z,34.91
2023-08-17T13:02:15.425Z,34.7
2023-08-17T13:03:19.635Z,34.43
2023-08-17T13:06:19.133Z,34.06
2023-08-17T13:07:19.763Z,34.07
2023-08-17T13:08:20.767Z,34.07
2023-08-17T13:09:21.127Z,34.21
2023-08-17T13:10:21.709Z,34.24
2023-08-17T13:11:22.435Z,34.19
2023-08-17T13:12:23.373Z,34.07
2023-08-17T13:13:23.487Z,34.13
2023-08-17T13:14:24.088Z,34.28
2023-08-17T13:15:25.055Z,34.33
2023-08-17T13:16:26.161Z,34.41
2023-08-17T13:17:26.376Z,34.4
2023-08-17T13:18:27.214Z,34.55
2023-08-17T13:19:28.037Z,34.81
2023-08-17T13:20:28.653Z,34.79
2023-08-17T13:21:28.813Z,34.91
2023-08-17T13:22:30.228Z,35.03
2023-08-17T13:23:30.012Z,34.97
2023-08-17T13:24:31.187Z,35
2023-08-17T13:25:31.613Z,35.07
2023-08-17T13:26:32.370Z,35.12
2023-08-17T13:27:32.994Z,35
2023-08-17T13:28:32.752Z,34.98
2023-08-17T13:29:33.503Z,34.91